Time;durP1;ratioP1;P1;durP2;ratioP2;P2;SDS_P1;SDS_P2;PMS_P1;PMS_P2;Temp;Humidity;BMP_temperature;BMP_pressure;BME280_temperature;BME280_humidity;BME280_pressure;Samples;Min_cycle;Max_cycle;Signal;HPM_P1;HPM_P2
2022/01/12 00:01:37;;;;;;;5.63;3.13;;;3.40;99.90;;;;;;5097202;28;20096;-83
2022/01/12 00:04:03;;;;;;;6.80;3.57;;;3.40;99.40;;;;;;5114243;28;20425;-83
2022/01/12 00:06:28;;;;;;;6.27;3.43;;;3.40;99.60;;;;;;5096884;28;20464;-83
2022/01/12 00:08:55;;;;;;;6.13;3.53;;;3.40;99.70;;;;;;5096322;28;20024;-83
2022/01/12 00:11:22;;;;;;;6.33;3.37;;;3.40;99.70;;;;;;5114725;28;20027;-83
2022/01/12 00:13:51;;;;;;;7.37;3.70;;;3.40;99.90;;;;;;5096232;28;20035;-83
2022/01/12 00:16:17;;;;;;;6.90;3.73;;;3.40;99.90;;;;;;5096492;28;20040;-83
2022/01/12 00:18:45;;;;;;;6.30;3.90;;;3.40;99.90;;;;;;5096648;28;20143;-83
2022/01/12 00:21:14;;;;;;;6.20;3.57;;;3.40;99.90;;;;;;5096650;28;20027;-83
2022/01/12 00:23:40;;;;;;;6.00;3.50;;;3.40;99.90;;;;;;5096656;28;20031;-83
2022/01/12 00:26:13;;;;;;;9.10;3.50;;;3.40;99.90;;;;;;5114448;28;20039;-83
2022/01/12 00:34:10;;;;;;;7.13;3.37;;;3.40;99.90;;;;;;5114745;28;20076;-83
2022/01/12 00:36:36;;;;;;;5.90;3.27;;;3.40;99.90;;;;;;5096432;28;20023;-83
2022/01/12 00:39:05;;;;;;;6.47;4.00;;;3.40;99.80;;;;;;5095888;28;20019;-83
2022/01/12 00:41:31;;;;;;;7.70;4.17;;;3.30;99.90;;;;;;5100757;28;20031;-83
2022/01/12 00:43:58;;;;;;;6.13;3.87;;;3.30;99.90;;;;;;5100151;28;20040;-83
2022/01/12 00:46:26;;;;;;;6.30;3.77;;;3.30;99.90;;;;;;5100845;28;20035;-83
2022/01/12 00:48:54;;;;;;;6.57;3.40;;;3.40;99.80;;;;;;5100289;28;20023;-83
2022/01/12 00:51:26;;;;;;;6.57;3.67;;;3.30;99.40;;;;;;5100735;28;20023;-84
2022/01/12 00:53:53;;;;;;;6.20;3.80;;;3.30;99.70;;;;;;5100066;28;20032;-82
2022/01/12 00:56:19;;;;;;;7.70;3.77;;;3.30;99.60;;;;;;5100346;28;20027;-83
2022/01/12 00:58:45;;;;;;;7.03;3.80;;;3.20;99.90;;;;;;5100283;28;20522;-83
2022/01/12 01:01:10;;;;;;;7.23;3.53;;;3.20;99.90;;;;;;5099806;28;20030;-83
2022/01/12 01:03:36;;;;;;;7.73;3.87;;;3.20;99.80;;;;;;5118316;28;20491;-83
2022/01/12 01:06:02;;;;;;;7.70;4.13;;;3.10;99.90;;;;;;5117724;28;20033;-83
2022/01/12 01:08:28;;;;;;;8.03;3.67;;;3.10;99.90;;;;;;5100512;28;20115;-83
2022/01/12 01:10:56;;;;;;;7.60;4.07;;;3.00;99.90;;;;;;5099914;28;20430;-83
2022/01/12 01:13:26;;;;;;;7.77;3.80;;;2.90;99.90;;;;;;5118273;28;20024;-83
2022/01/12 01:16:10;;;;;;;7.20;4.00;;;2.80;99.90;;;;;;5099618;28;20024;-82
2022/01/12 01:26:51;;;;;;;6.73;3.70;;;2.70;99.90;;;;;;5117475;28;20076;-83
2022/01/12 01:29:18;;;;;;;8.03;4.60;;;2.70;99.90;;;;;;5099959;28;20031;-83
2022/01/12 01:31:45;;;;;;;8.20;4.83;;;2.70;99.90;;;;;;5117778;28;20024;-83
2022/01/12 01:34:14;;;;;;;9.40;5.23;;;2.70;99.90;;;;;;5099348;28;20028;-82
2022/01/12 01:36:43;;;;;;;9.03;4.67;;;2.70;99.90;;;;;;5117729;28;20023;-83
2022/01/12 01:39:11;;;;;;;10.20;4.73;;;2.70;99.90;;;;;;5117132;28;20289;-82
2022/01/12 01:41:40;;;;;;;7.67;4.80;;;2.70;99.90;;;;;;5099681;28;20383;-82
2022/01/12 01:44:34;;;;;;;9.43;4.80;;;2.70;99.90;;;;;;5098545;28;20039;-82
2022/01/12 01:55:08;;;;;;;10.10;4.60;;;2.60;99.90;;;;;;5116997;28;20074;-83
2022/01/12 01:57:34;;;;;;;10.27;4.60;;;2.60;99.90;;;;;;5099421;28;20023;-83
2022/01/12 02:00:04;;;;;;;10.80;4.90;;;2.60;99.90;;;;;;5098855;28;20027;-83
2022/01/12 02:02:30;;;;;;;9.40;5.03;;;2.40;99.90;;;;;;5099245;28;20057;-83
2022/01/12 02:04:55;;;;;;;8.17;4.73;;;2.30;99.90;;;;;;5098562;28;20038;-83
2022/01/12 02:07:21;;;;;;;8.93;4.77;;;2.40;99.90;;;;;;5098973;28;20384;-83
2022/01/12 02:09:47;;;;;;;8.60;4.40;;;2.30;99.90;;;;;;5098821;28;20028;-83
2022/01/12 02:12:13;;;;;;;9.73;5.13;;;2.20;99.90;;;;;;5098437;28;20038;-85
2022/01/12 02:14:39;;;;;;;10.37;4.67;;;2.20;99.90;;;;;;5098729;28;20035;-82
2022/01/12 02:17:16;;;;;;;7.73;4.53;;;2.10;99.90;;;;;;5098280;28;20030;-83
2022/01/12 02:36:26;;;;;;;8.17;4.80;;;1.90;99.90;;;;;;5115733;28;20696;-82
2022/01/12 02:41:39;;;;;;;11.17;5.27;;;1.90;99.90;;;;;;5116466;28;20050;-82
2022/01/12 02:54:46;;;;;;;9.77;4.73;;;1.80;99.90;;;;;;5115971;28;20028;-82
2022/01/12 02:57:11;;;;;;;9.87;5.33;;;1.80;99.90;;;;;;5097425;28;20104;-82
2022/01/12 02:59:44;;;;;;;14.03;5.83;;;1.80;99.90;;;;;;5097994;28;20046;-83
2022/01/12 03:05:18;;;;;;;9.97;4.97;;;1.70;99.90;;;;;;5115517;28;20035;-80
2022/01/12 03:07:40;;;;;;;8.60;4.87;;;1.60;99.90;;;;;;5115013;28;20075;-83
2022/01/12 03:10:07;;;;;;;11.07;5.23;;;1.60;99.90;;;;;;5115187;28;20469;-82
2022/01/12 03:12:36;;;;;;;10.60;4.80;;;1.70;99.90;;;;;;5097398;28;20063;-82
2022/01/12 03:15:02;;;;;;;11.07;5.23;;;1.60;99.90;;;;;;5097194;28;20028;-82
2022/01/12 03:17:28;;;;;;;10.67;5.13;;;1.60;99.90;;;;;;5097427;28;20073;-82
2022/01/12 03:19:54;;;;;;;9.50;5.50;;;1.60;99.90;;;;;;5097432;28;20027;-82
2022/01/12 03:22:19;;;;;;;9.60;4.70;;;1.50;99.90;;;;;;5097351;28;20040;-83
2022/01/12 03:24:45;;;;;;;9.60;4.80;;;1.50;99.90;;;;;;5096980;28;20112;-82
2022/01/12 03:27:14;;;;;;;10.17;5.30;;;1.40;99.90;;;;;;5096853;28;20058;-83
2022/01/12 03:29:44;;;;;;;8.87;4.60;;;1.30;99.90;;;;;;5097485;28;20085;-83
2022/01/12 03:32:16;;;;;;;9.87;5.10;;;1.30;99.90;;;;;;5097242;28;20055;-83
2022/01/12 03:34:52;;;;;;;10.70;4.73;;;1.20;99.90;;;;;;5097841;28;20465;-83
2022/01/12 03:40:20;;;;;;;7.70;5.05;;;1.20;99.90;;;;;;5072217;28;20501;-83
2022/01/12 03:42:46;;;;;;;10.40;4.90;;;1.10;99.90;;;;;;5088630;28;20079;-83
2022/01/12 03:45:11;;;;;;;7.87;4.30;;;1.00;99.90;;;;;;5096764;28;20038;-83
2022/01/12 03:47:37;;;;;;;8.30;5.03;;;1.00;99.90;;;;;;5097323;28;20106;-83
2022/01/12 03:50:03;;;;;;;8.70;4.67;;;1.00;99.90;;;;;;5114448;28;20056;-83
2022/01/12 03:52:29;;;;;;;10.43;4.93;;;0.90;99.90;;;;;;5097302;28;20032;-83
2022/01/12 03:54:55;;;;;;;8.87;5.07;;;1.00;99.90;;;;;;5097148;28;20045;-83
2022/01/12 03:57:21;;;;;;;9.30;5.00;;;1.00;99.90;;;;;;5096708;28;20024;-82
2022/01/12 03:59:46;;;;;;;9.63;4.73;;;1.00;99.90;;;;;;5097288;28;20459;-83
2022/01/12 04:02:12;;;;;;;9.20;4.67;;;1.00;99.90;;;;;;5096521;28;20030;-83
2022/01/12 04:04:53;;;;;;;10.63;5.20;;;0.90;99.90;;;;;;5096891;28;20030;-83
2022/01/12 04:10:03;;;;;;;10.03;5.23;;;0.80;99.90;;;;;;5114286;28;20732;-83
2022/01/12 04:12:29;;;;;;;8.77;4.70;;;0.80;99.90;;;;;;5096810;28;20027;-83
2022/01/12 04:14:55;;;;;;;8.00;4.57;;;0.80;99.90;;;;;;5096385;28;20028;-83
2022/01/12 04:17:20;;;;;;;9.37;4.60;;;0.80;99.90;;;;;;5114303;28;20102;-83
2022/01/12 04:19:47;;;;;;;8.87;4.90;;;0.90;99.90;;;;;;5096929;28;20114;-83
2022/01/12 04:24:57;;;;;;;10.33;4.60;;;0.90;99.90;;;;;;5114469;28;20074;-83
2022/01/12 04:27:23;;;;;;;10.30;5.00;;;0.90;99.90;;;;;;5095906;28;20444;-83
2022/01/12 04:29:48;;;;;;;11.43;5.30;;;0.90;99.90;;;;;;5096512;28;20152;-83
2022/01/12 04:32:14;;;;;;;8.73;4.60;;;0.90;99.90;;;;;;5113991;28;20035;-83
2022/01/12 04:34:40;;;;;;;10.43;4.70;;;0.90;99.90;;;;;;5096444;28;20031;-82
2022/01/12 04:37:05;;;;;;;11.77;5.23;;;0.90;99.90;;;;;;5113937;28;20031;-83
2022/01/12 04:39:31;;;;;;;11.10;5.47;;;0.80;99.90;;;;;;5096627;28;20019;-83
2022/01/12 04:41:56;;;;;;;9.83;5.47;;;0.80;99.90;;;;;;5096457;28;20448;-83
2022/01/12 04:44:22;;;;;;;10.97;5.57;;;0.80;99.90;;;;;;5095953;28;20036;-83
2022/01/12 04:47:03;;;;;;;11.50;5.27;;;0.80;99.90;;;;;;5114690;28;20034;-83
2022/01/12 04:52:03;;;;;;;9.83;5.00;;;0.90;99.90;;;;;;5113893;28;20020;-84
2022/01/12 04:54:29;;;;;;;9.33;4.90;;;0.80;99.90;;;;;;5114275;28;20027;-83
2022/01/12 04:56:55;;;;;;;12.00;5.27;;;0.80;99.90;;;;;;5096237;28;20264;-83
2022/01/12 04:59:20;;;;;;;9.87;5.00;;;0.80;99.90;;;;;;5095893;28;20464;-83
2022/01/12 05:01:56;;;;;;;8.60;5.03;;;0.80;99.90;;;;;;5114355;28;20157;-83
2022/01/12 05:14:54;;;;;;;8.60;4.77;;;0.70;99.90;;;;;;5114412;28;20042;-85
2022/01/12 05:17:20;;;;;;;10.27;4.47;;;0.50;99.90;;;;;;5095694;28;20027;-85
2022/01/12 05:19:45;;;;;;;7.60;4.40;;;0.50;99.90;;;;;;5113971;28;20031;-85
2022/01/12 05:22:11;;;;;;;8.77;4.70;;;0.50;99.90;;;;;;5095548;28;20020;-85
2022/01/12 05:24:36;;;;;;;10.20;4.97;;;0.50;99.90;;;;;;5095643;28;20062;-85
2022/01/12 05:27:02;;;;;;;9.57;4.67;;;0.50;99.90;;;;;;5098404;28;20027;-84
2022/01/12 05:29:28;;;;;;;9.27;5.13;;;0.60;99.90;;;;;;5100088;28;20067;-85
2022/01/12 05:31:54;;;;;;;10.20;4.57;;;0.60;99.90;;;;;;5117687;28;20445;-83
2022/01/12 05:34:20;;;;;;;9.77;4.87;;;0.60;99.90;;;;;;5099171;28;20035;-83
2022/01/12 05:36:46;;;;;;;10.47;5.33;;;0.60;99.90;;;;;;5099864;28;20024;-83
2022/01/12 05:39:12;;;;;;;11.80;5.33;;;0.50;99.90;;;;;;5099080;28;20045;-85
2022/01/12 05:41:37;;;;;;;10.47;5.13;;;0.50;99.90;;;;;;5099729;28;20019;-85
2022/01/12 05:44:06;;;;;;;8.67;5.03;;;0.50;99.90;;;;;;5098882;28;20492;-82
2022/01/12 05:46:32;;;;;;;9.50;4.90;;;0.50;99.90;;;;;;5099373;28;20119;-83
2022/01/12 05:51:44;;;;;;;9.67;4.87;;;0.50;99.90;;;;;;5117413;28;20031;-83
2022/01/12 05:54:09;;;;;;;9.97;5.33;;;0.50;99.90;;;;;;5099061;28;20135;-83
2022/01/12 05:56:35;;;;;;;10.97;5.10;;;0.40;99.90;;;;;;5099316;28;20032;-83
2022/01/12 05:59:01;;;;;;;10.57;4.97;;;0.40;99.90;;;;;;5117375;28;20115;-83
2022/01/12 06:01:26;;;;;;;11.67;5.33;;;0.30;99.90;;;;;;5098796;28;20027;-83
2022/01/12 06:03:52;;;;;;;7.70;4.50;;;0.30;99.90;;;;;;5098835;28;20577;-83
2022/01/12 06:06:18;;;;;;;10.60;5.10;;;0.20;99.90;;;;;;5098408;28;20119;-83
2022/01/12 06:08:44;;;;;;;11.60;5.13;;;0.20;99.90;;;;;;5099200;28;20410;-83
2022/01/12 06:11:09;;;;;;;9.53;5.50;;;0.10;99.90;;;;;;5098441;28;20016;-83
2022/01/12 06:13:35;;;;;;;12.20;5.87;;;0.10;99.90;;;;;;5098816;28;20034;-83
2022/01/12 06:16:01;;;;;;;12.63;5.50;;;0.10;99.90;;;;;;5116804;28;20495;-83
2022/01/12 06:18:26;;;;;;;12.37;5.33;;;0.10;99.90;;;;;;5116099;28;20097;-85
2022/01/12 06:20:52;;;;;;;11.83;6.07;;;0.10;99.90;;;;;;5098349;28;20027;-83
2022/01/12 06:23:17;;;;;;;11.13;6.00;;;0.10;99.90;;;;;;5098220;28;20413;-83
2022/01/12 06:25:43;;;;;;;13.50;6.60;;;0.10;99.90;;;;;;5098434;28;20453;-83
2022/01/12 06:28:37;;;;;;;13.70;5.87;;;0.10;99.90;;;;;;5098111;28;20028;-83
2022/01/12 06:31:17;;;;;;;12.47;6.23;;;0.10;99.90;;;;;;5098691;28;20027;-83
2022/01/12 06:33:45;;;;;;;11.67;5.87;;;0.00;99.90;;;;;;5098994;28;20031;-83
2022/01/12 06:36:17;;;;;;;14.97;6.20;;;0.00;99.90;;;;;;5098189;28;20027;-83
2022/01/12 06:38:43;;;;;;;;;;;-0.10;99.90;;;;;;5098456;28;20019;-84
2022/01/12 06:41:10;;;;;;;10.77;5.70;;;0.00;99.90;;;;;;5097872;28;19904;-83
2022/01/12 06:43:37;;;;;;;14.40;6.57;;;0.00;99.90;;;;;;5098233;28;20039;-83
2022/01/12 06:46:03;;;;;;;11.47;5.93;;;-0.10;99.90;;;;;;5098329;28;20036;-83
2022/01/12 06:48:30;;;;;;;12.30;6.27;;;-0.20;99.90;;;;;;5098139;28;20028;-82
2022/01/12 06:50:55;;;;;;;14.23;6.60;;;-0.30;99.90;;;;;;5098385;28;20028;-83
2022/01/12 06:53:21;;;;;;;13.10;6.60;;;-0.30;99.90;;;;;;5115882;28;20464;-83
2022/01/12 06:55:47;;;;;;;13.17;6.37;;;-0.30;99.90;;;;;;5098339;28;20028;-83
2022/01/12 06:58:12;;;;;;;12.80;6.50;;;-0.20;99.90;;;;;;5097727;28;20051;-83
2022/01/12 07:00:38;;;;;;;13.13;6.10;;;-0.20;99.90;;;;;;5098077;28;20111;-83
2022/01/12 07:03:04;;;;;;;13.37;6.50;;;-0.20;99.90;;;;;;5115809;28;20032;-83
2022/01/12 07:05:29;;;;;;;12.20;6.33;;;-0.20;99.90;;;;;;5097563;28;20024;-83
2022/01/12 07:07:55;;;;;;;11.50;6.00;;;-0.20;99.90;;;;;;5097916;28;20023;-83
2022/01/12 07:10:21;;;;;;;15.60;6.47;;;-0.20;99.90;;;;;;5097398;28;20023;-83
2022/01/12 07:12:46;;;;;;;12.93;6.57;;;-0.20;99.90;;;;;;5098016;28;20126;-83
2022/01/12 07:15:12;;;;;;;11.77;6.57;;;-0.10;99.90;;;;;;5097605;28;20376;-83
2022/01/12 07:17:38;;;;;;;14.17;6.77;;;0.00;99.90;;;;;;5115842;28;20024;-84
2022/01/12 07:20:07;;;;;;;12.57;6.83;;;0.00;99.90;;;;;;5097591;28;20107;-83
2022/01/12 07:22:32;;;;;;;12.20;6.40;;;0.10;99.90;;;;;;5096910;28;20131;-83
2022/01/12 07:24:58;;;;;;;14.27;6.87;;;0.10;99.90;;;;;;5097749;28;20083;-83
2022/01/12 07:27:24;;;;;;;15.57;6.23;;;0.20;99.90;;;;;;5096936;28;20076;-83
2022/01/12 07:29:50;;;;;;;14.70;6.43;;;0.20;99.90;;;;;;5097699;28;20028;-83
2022/01/12 07:32:15;;;;;;;13.37;6.47;;;0.20;99.90;;;;;;5097159;28;20035;-83
2022/01/12 07:34:41;;;;;;;14.50;6.63;;;0.20;99.90;;;;;;5115303;28;20040;-83
2022/01/12 07:37:07;;;;;;;13.70;6.60;;;0.20;99.90;;;;;;5097834;28;20027;-83
2022/01/12 07:39:32;;;;;;;11.83;6.87;;;0.20;99.90;;;;;;5097094;28;20115;-83
2022/01/12 07:41:58;;;;;;;13.77;6.53;;;0.20;99.90;;;;;;5098070;28;20024;-83
2022/01/12 07:44:24;;;;;;;11.27;6.57;;;0.30;99.90;;;;;;5096682;28;20039;-83
2022/01/12 07:46:52;;;;;;;12.27;6.93;;;0.30;99.90;;;;;;5115104;28;20461;-83
2022/01/12 07:49:18;;;;;;;11.53;6.43;;;0.30;99.90;;;;;;5095687;28;20027;-84
2022/01/12 07:51:43;;;;;;;13.43;6.53;;;0.20;99.90;;;;;;5097500;28;20111;-84
2022/01/12 07:54:09;;;;;;;12.73;7.03;;;0.20;99.90;;;;;;5097121;28;20054;-84
2022/01/12 07:56:34;;;;;;;15.17;7.13;;;0.20;99.90;;;;;;5096518;28;20027;-84
2022/01/12 07:59:00;;;;;;;13.13;6.93;;;0.20;99.90;;;;;;5115014;28;20028;-83
2022/01/12 08:01:26;;;;;;;13.67;6.53;;;0.20;99.90;;;;;;5097207;28;20080;-84
2022/01/12 08:03:51;;;;;;;12.67;6.30;;;0.30;99.90;;;;;;5097350;28;20430;-83
2022/01/12 08:06:17;;;;;;;13.00;7.07;;;0.40;99.90;;;;;;5114613;28;20088;-83
2022/01/12 08:08:43;;;;;;;13.60;7.03;;;0.40;99.90;;;;;;5096841;28;20020;-84
2022/01/12 08:11:09;;;;;;;14.10;6.87;;;0.50;99.90;;;;;;5096977;28;20027;-83
2022/01/12 08:13:34;;;;;;;13.57;6.37;;;0.50;99.90;;;;;;5096161;28;20043;-82
2022/01/12 08:16:00;;;;;;;12.40;6.17;;;0.60;99.90;;;;;;5114877;28;20122;-83
2022/01/12 08:18:26;;;;;;;14.70;7.00;;;0.70;99.90;;;;;;5114318;28;20028;-83
2022/01/12 08:20:51;;;;;;;15.30;7.20;;;0.70;99.90;;;;;;5096820;28;20024;-83
2022/01/12 08:23:17;;;;;;;14.00;7.37;;;0.80;99.90;;;;;;5096173;28;20046;-82
2022/01/12 08:25:43;;;;;;;14.87;6.97;;;0.80;99.90;;;;;;5114812;28;20118;-83
2022/01/12 08:28:09;;;;;;;13.83;7.17;;;0.80;99.90;;;;;;5097277;28;20020;-83
2022/01/12 08:30:35;;;;;;;14.57;7.20;;;0.90;99.90;;;;;;5114133;28;20456;-83
2022/01/12 08:33:02;;;;;;;13.23;7.07;;;0.90;99.90;;;;;;5116467;28;20084;-84
2022/01/12 08:35:28;;;;;;;11.80;6.70;;;0.90;99.90;;;;;;5113746;28;20099;-84
2022/01/12 08:37:54;;;;;;;12.33;6.67;;;0.90;99.90;;;;;;5096495;28;20119;-85
2022/01/12 08:40:20;;;;;;;13.93;6.90;;;0.90;99.90;;;;;;5095883;28;20031;-84
2022/01/12 08:42:47;;;;;;;13.87;7.33;;;0.90;99.90;;;;;;5114047;28;20039;-84
2022/01/12 08:45:14;;;;;;;13.10;6.53;;;1.00;99.90;;;;;;5096513;28;20065;-84
2022/01/12 08:47:40;;;;;;;13.60;6.93;;;1.00;99.90;;;;;;5114150;28;20020;-84
2022/01/12 08:50:07;;;;;;;14.43;7.40;;;1.00;99.90;;;;;;5114797;28;20080;-84
2022/01/12 08:52:32;;;;;;;14.13;7.33;;;1.00;99.90;;;;;;5096136;28;20023;-84
2022/01/12 08:55:00;;;;;;;14.30;7.43;;;1.00;99.90;;;;;;5096559;28;20047;-85
2022/01/12 08:57:30;;;;;;;14.60;7.83;;;1.00;99.90;;;;;;5095929;28;20038;-85
2022/01/12 09:00:00;;;;;;;12.43;7.23;;;1.00;99.90;;;;;;5096516;28;20034;-83
2022/01/12 09:02:26;;;;;;;14.57;7.70;;;1.00;99.90;;;;;;5117691;28;20111;-82
2022/01/12 09:04:52;;;;;;;13.50;7.60;;;1.10;99.90;;;;;;5100555;28;20119;-82
2022/01/12 09:07:18;;;;;;;15.50;7.70;;;1.10;99.90;;;;;;5117786;28;20055;-82
2022/01/12 09:09:44;;;;;;;16.03;7.33;;;1.10;99.90;;;;;;5100186;28;20023;-83
2022/01/12 09:12:10;;;;;;;13.93;7.50;;;1.20;99.90;;;;;;5099900;28;20024;-83
2022/01/12 09:14:36;;;;;;;13.93;7.73;;;1.20;99.90;;;;;;5099788;28;20484;-83
2022/01/12 09:17:02;;;;;;;13.33;7.93;;;1.30;99.90;;;;;;5100473;28;20024;-83
2022/01/12 09:19:29;;;;;;;13.50;7.67;;;1.30;99.90;;;;;;5099520;28;20471;-83
2022/01/12 09:21:56;;;;;;;15.87;7.90;;;1.40;99.90;;;;;;5100253;28;20457;-84
2022/01/12 09:24:22;;;;;;;12.10;6.67;;;1.40;99.90;;;;;;5117054;28;20429;-84
2022/01/12 09:26:49;;;;;;;14.77;7.80;;;1.50;99.90;;;;;;5099900;28;20023;-82
2022/01/12 09:29:15;;;;;;;12.20;7.10;;;1.50;99.90;;;;;;5099877;28;20032;-83
2022/01/12 09:31:40;;;;;;;14.50;7.57;;;1.60;99.90;;;;;;5099415;28;20042;-83
2022/01/12 09:34:07;;;;;;;12.50;6.80;;;1.60;99.90;;;;;;5117547;28;20065;-83
2022/01/12 09:36:32;;;;;;;13.57;6.93;;;1.70;99.90;;;;;;5117205;28;20024;-83
2022/01/12 09:38:58;;;;;;;14.03;7.23;;;1.80;99.90;;;;;;5099923;28;20027;-83
2022/01/12 09:41:26;;;;;;;13.40;7.20;;;1.90;99.90;;;;;;5099281;28;20023;-83
2022/01/12 09:43:53;;;;;;;14.73;7.23;;;1.90;99.90;;;;;;5099459;28;20073;-82
2022/01/12 09:46:19;;;;;;;15.63;6.90;;;1.90;99.90;;;;;;5117087;28;20032;-82
2022/01/12 09:48:45;;;;;;;12.77;6.80;;;1.90;99.90;;;;;;5117555;28;20139;-82
2022/01/12 09:51:11;;;;;;;13.20;7.87;;;2.00;99.90;;;;;;5099562;28;20524;-83
2022/01/12 09:53:39;;;;;;;15.23;7.27;;;2.00;99.90;;;;;;5099100;28;20070;-83
2022/01/12 09:56:14;;;;;;;14.17;6.57;;;2.00;99.90;;;;;;5117384;28;20438;-82
2022/01/12 09:58:39;;;;;;;14.73;7.37;;;2.10;99.90;;;;;;5098962;28;20069;-82
2022/01/12 10:01:05;;;;;;;12.07;6.23;;;2.20;99.90;;;;;;5099304;28;20075;-83
2022/01/12 10:03:31;;;;;;;11.13;6.40;;;2.20;99.90;;;;;;5098994;28;20115;-83
2022/01/12 10:05:57;;;;;;;10.47;6.33;;;2.30;99.90;;;;;;5099284;28;20527;-83
2022/01/12 10:08:23;;;;;;;11.87;6.83;;;2.40;99.90;;;;;;5117032;28;20028;-82
2022/01/12 10:11:05;;;;;;;12.23;7.07;;;2.40;99.90;;;;;;5099245;28;20027;-83
2022/01/12 10:13:31;;;;;;;11.73;6.68;;;2.40;99.90;;;;;;5097701;28;20074;-83
2022/01/12 10:15:57;;;;;;;13.00;6.80;;;2.40;99.90;;;;;;5099231;28;20035;-83
2022/01/12 10:18:23;;;;;;;11.67;6.40;;;2.50;99.90;;;;;;5098447;28;20020;-83
2022/01/12 10:20:50;;;;;;;14.70;7.10;;;2.40;99.90;;;;;;5116967;28;20399;-83
2022/01/12 10:23:20;;;;;;;12.23;6.90;;;2.40;99.90;;;;;;5098868;28;20350;-83
2022/01/12 10:25:48;;;;;;;12.17;6.97;;;2.50;99.90;;;;;;5094874;28;20062;-83
2022/01/12 10:28:19;;;;;;;10.37;6.17;;;2.50;99.90;;;;;;5095498;28;20032;-83
2022/01/12 10:31:01;;;;;;;12.82;6.00;;;2.60;99.90;;;;;;5095359;28;20385;-83
2022/01/12 10:33:29;;;;;;;10.30;5.87;;;2.60;99.90;;;;;;5095670;28;20062;-83
2022/01/12 10:35:58;;;;;;;10.27;6.67;;;2.70;99.90;;;;;;5094817;28;20073;-83
2022/01/12 10:38:25;;;;;;;12.23;6.57;;;2.70;99.90;;;;;;5094646;28;20030;-83
2022/01/12 10:40:55;;;;;;;12.07;6.23;;;2.70;99.90;;;;;;5095101;28;20058;-83
2022/01/12 10:43:44;;;;;;;9.70;5.90;;;2.70;99.90;;;;;;5094571;28;20119;-82
2022/01/12 10:46:17;;;;;;;12.97;7.07;;;2.70;99.90;;;;;;5095657;28;20028;-84
2022/01/12 10:48:52;;;;;;;10.00;6.20;;;2.70;99.90;;;;;;5094615;28;20507;-83
2022/01/12 10:51:21;;;;;;;10.77;6.13;;;2.70;99.90;;;;;;5094893;28;20032;-82
2022/01/12 10:53:52;;;;;;;11.60;6.80;;;2.80;99.90;;;;;;5094845;28;20032;-82
2022/01/12 10:56:20;;;;;;;12.18;6.53;;;2.90;99.90;;;;;;5094746;28;20025;-83
2022/01/12 10:58:48;;;;;;;10.17;6.00;;;2.90;99.90;;;;;;5093747;28;20035;-83
2022/01/12 11:01:17;;;;;;;8.37;5.43;;;2.90;99.90;;;;;;5095541;28;20031;-83
2022/01/12 11:03:43;;;;;;;12.17;6.13;;;3.00;99.90;;;;;;5094012;28;20062;-84
2022/01/12 11:06:10;;;;;;;10.80;5.83;;;3.00;99.90;;;;;;5094485;28;20081;-83
2022/01/12 11:08:39;;;;;;;10.37;6.07;;;3.00;99.90;;;;;;5094019;28;20028;-83
2022/01/12 11:11:05;;;;;;;10.17;5.63;;;3.00;99.90;;;;;;5094502;28;20241;-81
2022/01/12 11:13:32;;;;;;;9.73;5.00;;;3.10;99.70;;;;;;5093634;28;20028;-82
2022/01/12 11:15:59;;;;;;;8.20;5.03;;;3.10;98.80;;;;;;5094382;28;20040;-82
2022/01/12 11:18:31;;;;;;;10.33;5.27;;;3.20;99.50;;;;;;5093753;28;20032;-81
2022/01/12 11:21:06;;;;;;;8.00;4.70;;;3.20;98.90;;;;;;5094135;28;20038;-82
2022/01/12 11:23:39;;;;;;;7.17;4.80;;;3.30;98.30;;;;;;5093469;28;20038;-82
2022/01/12 11:26:16;;;;;;;8.43;4.83;;;3.30;98.50;;;;;;5093926;28;20557;-83
2022/01/12 11:28:44;;;;;;;8.70;4.70;;;3.30;98.70;;;;;;5094486;28;20024;-82
2022/01/12 11:31:11;;;;;;;8.13;4.47;;;3.30;98.40;;;;;;5095108;28;20055;-83
2022/01/12 11:33:40;;;;;;;7.57;4.73;;;3.40;98.60;;;;;;5094549;28;20032;-83
2022/01/12 11:36:19;;;;;;;8.83;4.93;;;3.50;98.60;;;;;;5093869;28;20032;-83
2022/01/12 11:38:50;;;;;;;7.67;4.83;;;3.50;98.00;;;;;;5093448;28;20528;-83
2022/01/12 11:41:17;;;;;;;9.53;5.20;;;3.50;97.70;;;;;;5094055;28;20029;-83
2022/01/12 11:43:47;;;;;;;7.43;4.90;;;3.50;98.10;;;;;;5093239;28;20477;-82
2022/01/12 11:46:24;;;;;;;8.07;4.77;;;3.60;98.60;;;;;;5093917;28;20035;-83
2022/01/12 11:48:58;;;;;;;8.47;5.30;;;3.60;98.10;;;;;;5093747;28;20024;-84
2022/01/12 11:51:36;;;;;;;7.60;4.60;;;3.70;97.50;;;;;;5093863;28;20024;-84
2022/01/12 11:54:12;;;;;;;9.47;4.80;;;3.70;97.10;;;;;;5094799;28;20024;-84
2022/01/12 11:56:59;;;;;;;10.07;5.37;;;3.70;97.50;;;;;;5093141;28;20028;-84
2022/01/12 11:59:27;;;;;;;8.03;4.70;;;3.70;97.40;;;;;;5093340;28;20488;-82
2022/01/12 12:02:08;;;;;;;9.67;4.70;;;3.80;97.70;;;;;;5093642;28;20024;-84
2022/01/12 12:04:33;;;;;;;8.47;4.80;;;3.80;97.70;;;;;;5094292;28;20072;-84
2022/01/12 12:07:14;;;;;;;9.30;4.93;;;3.90;97.10;;;;;;5094601;28;20043;-83
2022/01/12 12:09:52;;;;;;;7.87;4.37;;;3.90;96.90;;;;;;5092705;28;20158;-83
2022/01/12 12:12:30;;;;;;;9.27;5.20;;;4.00;96.80;;;;;;5094420;28;20114;-83
2022/01/12 12:15:00;;;;;;;7.50;4.60;;;4.20;96.20;;;;;;5094343;28;20064;-84
2022/01/12 12:17:31;;;;;;;8.83;4.90;;;4.30;96.00;;;;;;5093398;28;20024;-83
2022/01/12 12:19:57;;;;;;;9.20;5.33;;;4.50;95.60;;;;;;5094420;28;20032;-84
2022/01/12 12:22:29;;;;;;;8.43;5.43;;;4.70;95.40;;;;;;5094107;28;20024;-84
2022/01/12 12:25:07;;;;;;;9.50;5.20;;;4.90;95.40;;;;;;5093399;28;20048;-82
2022/01/12 12:27:34;;;;;;;8.33;5.07;;;5.10;95.20;;;;;;5092990;28;20039;-83
2022/01/12 12:30:02;;;;;;;7.67;4.67;;;5.30;94.00;;;;;;5093314;28;20020;-83
2022/01/12 12:32:43;;;;;;;8.37;5.07;;;5.40;93.30;;;;;;5093085;28;20055;-81
2022/01/12 12:35:19;;;;;;;9.80;5.53;;;5.60;92.80;;;;;;5092423;28;20024;-83
2022/01/12 12:37:47;;;;;;;6.80;4.70;;;5.70;93.30;;;;;;5092784;28;20024;-83
2022/01/12 12:40:37;;;;;;;7.30;4.43;;;5.90;92.50;;;;;;5094664;28;20465;-83
2022/01/12 12:43:14;;;;;;;8.13;4.97;;;5.90;91.70;;;;;;5093550;28;20032;-83
2022/01/12 12:45:56;;;;;;;7.60;4.87;;;6.00;92.00;;;;;;5093045;28;20036;-83
2022/01/12 12:48:25;;;;;;;7.40;4.70;;;5.90;92.30;;;;;;5093180;28;20376;-83
2022/01/12 12:51:12;;;;;;;8.03;5.10;;;5.90;91.60;;;;;;5092744;28;20029;-84
2022/01/12 12:53:56;;;;;;;6.73;4.40;;;5.80;91.40;;;;;;5092540;28;20055;-84
2022/01/12 12:56:27;;;;;;;8.33;4.60;;;5.80;92.50;;;;;;5094001;28;20020;-83
2022/01/12 12:58:56;;;;;;;8.67;5.17;;;5.90;92.60;;;;;;5092459;28;20030;-83
2022/01/12 13:01:24;;;;;;;10.40;5.33;;;5.90;92.10;;;;;;5092793;28;20115;-84
2022/01/12 13:03:54;;;;;;;9.00;5.40;;;5.90;92.60;;;;;;5093531;28;20114;-84
2022/01/12 13:06:28;;;;;;;8.97;5.20;;;6.00;92.60;;;;;;5093050;28;20530;-84
2022/01/12 13:08:56;;;;;;;9.20;5.40;;;6.00;92.10;;;;;;5092359;28;20024;-83
2022/01/12 13:11:28;;;;;;;7.73;5.13;;;6.10;91.80;;;;;;5093053;28;20185;-83
2022/01/12 13:13:59;;;;;;;8.65;5.28;;;6.20;90.60;;;;;;5093639;28;20028;-83
2022/01/12 13:16:26;;;;;;;7.87;4.93;;;6.40;90.40;;;;;;5092957;28;20032;-83
2022/01/12 13:19:03;;;;;;;8.37;5.47;;;6.60;88.50;;;;;;5075551;28;20115;-83
2022/01/12 13:21:29;;;;;;;7.80;5.20;;;6.80;89.00;;;;;;5092772;28;20025;-83
2022/01/12 13:23:58;;;;;;;7.43;4.93;;;6.90;88.30;;;;;;5093211;28;20036;-83
2022/01/12 13:26:25;;;;;;;8.37;5.10;;;6.80;88.40;;;;;;5113922;28;20023;-83
2022/01/12 13:28:51;;;;;;;8.97;5.33;;;6.80;89.00;;;;;;5113553;28;20136;-83
2022/01/12 13:31:21;;;;;;;7.80;5.63;;;6.80;89.10;;;;;;5095890;28;20028;-83
2022/01/12 13:33:50;;;;;;;8.43;5.37;;;6.70;89.40;;;;;;5113452;28;20031;-83
2022/01/12 13:36:18;;;;;;;8.57;5.57;;;6.70;90.10;;;;;;5096284;28;20122;-83
2022/01/12 13:38:58;;;;;;;9.83;5.27;;;6.60;90.50;;;;;;5113586;28;20074;-83
2022/01/12 13:41:29;;;;;;;9.07;5.47;;;6.70;90.30;;;;;;5096143;28;20020;-83
2022/01/12 13:43:58;;;;;;;7.10;4.75;;;6.70;86.00;;;;;;5095046;28;20469;-83
2022/01/12 13:46:36;;;;;;;7.97;4.87;;;6.80;86.60;;;;;;5095820;28;20477;-83
2022/01/12 13:51:37;;;;;;;10.90;5.53;;;7.10;86.00;;;;;;5116633;28;20075;-82
2022/01/12 13:54:14;;;;;;;10.90;5.93;;;7.20;85.80;;;;;;5117498;28;20034;-83
2022/01/12 13:56:45;;;;;;;9.93;5.77;;;7.20;82.10;;;;;;5099043;28;20051;-84
2022/01/12 13:59:13;;;;;;;9.07;5.40;;;7.30;82.10;;;;;;5099230;28;20024;-83
2022/01/12 14:01:41;;;;;;;10.57;5.57;;;7.30;82.80;;;;;;5098785;28;20051;-83
2022/01/12 14:04:15;;;;;;;9.75;5.57;;;7.50;83.90;;;;;;5099018;28;20458;-83
2022/01/12 14:06:46;;;;;;;9.18;5.05;;;7.50;83.20;;;;;;5116675;28;20080;-84
2022/01/12 14:09:29;;;;;;;9.15;5.05;;;7.40;82.20;;;;;;5099110;28;20023;-83
2022/01/12 14:11:55;;;;;;;7.20;5.00;;;7.30;85.20;;;;;;5098506;28;20028;-83
2022/01/12 14:14:22;;;;;;;10.32;5.40;;;7.20;84.80;;;;;;5098716;28;20028;-83
2022/01/12 14:16:48;;;;;;;7.88;5.00;;;7.10;85.70;;;;;;5098617;28;20380;-85
2022/01/12 14:19:15;;;;;;;7.65;5.10;;;7.00;85.60;;;;;;5098463;28;20024;-83